Time;durP1;ratioP1;P1;durP2;ratioP2;P2;SDS_P1;SDS_P2;PMS_P1;PMS_P2;Temp;Humidity;BMP_temperature;BMP_pressure;BME280_temperature;BME280_humidity;BME280_pressure;Samples;Min_cycle;Max_cycle;Signal;HPM_P1;HPM_P2
2022/02/06 00:02:29;;;;;;;8.00;2.70;;;6.80;99.90;;;;;;5054733;28;20208;-81
2022/02/06 00:04:54;;;;;;;5.43;1.90;;;6.80;99.90;;;;;;5055058;28;20409;-83
2022/02/06 00:07:21;;;;;;;5.27;1.67;;;6.70;99.90;;;;;;5054932;28;20638;-80
2022/02/06 00:09:47;;;;;;;7.22;1.52;;;6.70;99.90;;;;;;5054305;28;20624;-81
2022/02/06 00:12:14;;;;;;;3.67;1.10;;;6.80;99.90;;;;;;5034566;28;20186;-79
2022/02/06 00:14:39;;;;;;;3.15;1.67;;;6.80;99.90;;;;;;5054417;28;20198;-80
2022/02/06 00:17:07;;;;;;;3.97;1.73;;;6.80;99.90;;;;;;5054482;28;20188;-80
2022/02/06 00:19:33;;;;;;;4.28;1.25;;;6.80;99.90;;;;;;5054038;28;20207;-82
2022/02/06 00:22:00;;;;;;;4.03;1.60;;;6.80;99.90;;;;;;5054481;28;20168;-80
2022/02/06 00:24:37;;;;;;;3.25;1.23;;;6.80;99.90;;;;;;5054258;28;20180;-82
2022/02/06 00:27:07;;;;;;;4.53;1.85;;;6.80;99.90;;;;;;5053055;28;20184;-77
2022/02/06 00:29:47;;;;;;;9.25;1.92;;;6.80;99.90;;;;;;5054106;28;20205;-79
2022/02/06 00:32:26;;;;;;;7.85;2.05;;;7.00;99.90;;;;;;5054149;28;20166;-79
2022/02/06 00:40:21;;;;;;;7.43;2.13;;;7.10;99.90;;;;;;5478900;22;20261;-81
2022/02/06 00:42:47;;;;;;;8.40;3.85;;;7.20;99.90;;;;;;5033897;28;20269;-79
2022/02/06 00:45:13;;;;;;;4.70;1.60;;;7.30;99.90;;;;;;5034077;28;20262;-79
2022/02/06 00:47:40;;;;;;;1.80;1.10;;;7.30;99.90;;;;;;5034135;28;20281;-79
2022/02/06 00:50:07;;;;;;;5.47;2.00;;;7.40;99.90;;;;;;5033559;28;20607;-78
2022/02/06 00:52:40;;;;;;;5.15;1.75;;;7.40;99.90;;;;;;5016600;28;20614;-79
2022/02/06 00:55:06;;;;;;;6.60;1.55;;;7.50;99.90;;;;;;5016122;28;20603;-78
2022/02/06 00:57:32;;;;;;;6.57;1.60;;;7.40;99.90;;;;;;5033877;28;20190;-79
2022/02/06 00:59:58;;;;;;;4.70;1.50;;;7.50;99.90;;;;;;5033480;28;20540;-80
2022/02/06 01:02:23;;;;;;;10.43;2.57;;;7.50;99.90;;;;;;5033664;28;20260;-80
2022/02/06 01:04:49;;;;;;;5.17;1.77;;;7.50;99.90;;;;;;5033664;28;20185;-80
2022/02/06 01:07:15;;;;;;;5.63;1.83;;;7.50;99.90;;;;;;5033594;28;20186;-80
2022/02/06 01:09:40;;;;;;;5.40;2.43;;;7.60;99.90;;;;;;5033231;28;20199;-77
2022/02/06 01:12:06;;;;;;;4.00;2.00;;;7.50;99.90;;;;;;5033606;28;20185;-80
2022/02/06 01:14:49;;;;;;;5.30;1.58;;;7.60;99.90;;;;;;5033490;28;20179;-79
2022/02/06 01:20:57;;;;;;;8.60;1.92;;;7.70;99.90;;;;;;5030313;28;20213;-79
2022/02/06 01:23:06;;;;;;;4.22;1.15;;;7.60;99.90;;;;;;5024784;28;20202;-79
2022/02/06 01:25:52;;;;;;;4.15;1.50;;;7.60;99.90;;;;;;5033346;28;20669;-78
2022/02/06 01:28:23;;;;;;;4.47;1.85;;;7.60;99.90;;;;;;5018615;28;20231;-78
2022/02/06 01:30:59;;;;;;;2.10;1.30;;;7.70;99.90;;;;;;5032983;28;20608;-80
2022/02/06 01:33:39;;;;;;;3.33;1.52;;;7.70;99.90;;;;;;5033100;28;20174;-79
2022/02/06 01:36:31;;;;;;;9.20;2.45;;;7.70;99.90;;;;;;5033222;28;20204;-78
2022/02/06 01:41:25;;;;;;;6.83;2.30;;;7.80;99.90;;;;;;5033024;28;20190;-79
2022/02/06 01:44:14;;;;;;;4.18;1.45;;;7.80;99.90;;;;;;5033461;28;20184;-79
2022/02/06 01:57:26;;;;;;;4.47;1.92;;;7.80;99.90;;;;;;5033244;28;20192;-79
2022/02/06 02:06:27;;;;;;;9.63;2.17;;;7.90;99.90;;;;;;5004654;28;20662;-78
2022/02/06 02:09:22;;;;;;;8.13;1.70;;;7.90;99.90;;;;;;5032462;28;20260;-80
2022/02/06 02:25:47;;;;;;;7.03;1.67;;;8.10;99.90;;;;;;5032899;28;20193;-79
2022/02/06 02:31:19;;;;;;;5.63;2.50;;;8.10;99.90;;;;;;5017851;28;20217;-78
2022/02/06 02:47:23;;;;;;;7.70;2.42;;;8.20;99.90;;;;;;5032864;28;20233;-79
2022/02/06 02:49:53;;;;;;;6.73;2.23;;;8.20;99.90;;;;;;5032032;28;20199;-78
2022/02/06 02:52:43;;;;;;;6.32;1.60;;;8.10;99.90;;;;;;5032713;28;20171;-79
2022/02/06 03:02:47;;;;;;;4.20;1.90;;;8.20;99.90;;;;;;5035961;28;20471;-79
2022/02/06 03:05:13;;;;;;;7.65;1.95;;;8.10;99.90;;;;;;5035998;28;20179;-79
2022/02/06 03:07:38;;;;;;;6.45;1.65;;;8.10;99.90;;;;;;5035929;28;20596;-78
2022/02/06 03:10:05;;;;;;;3.90;1.97;;;8.10;99.90;;;;;;5035546;28;20211;-80
2022/02/06 03:12:33;;;;;;;6.33;4.10;;;8.10;99.90;;;;;;5035832;28;20413;-79
2022/02/06 03:15:08;;;;;;;5.28;1.83;;;8.00;99.90;;;;;;5035842;28;20457;-80
2022/02/06 03:17:37;;;;;;;5.35;1.40;;;7.90;99.90;;;;;;5019584;28;20257;-78
2022/02/06 03:20:09;;;;;;;4.43;2.60;;;7.90;99.90;;;;;;5034026;28;20252;-80
2022/02/06 03:22:48;;;;;;;5.50;2.08;;;7.80;99.90;;;;;;5035833;28;20178;-80
2022/02/06 03:25:19;;;;;;;4.32;1.70;;;7.70;99.90;;;;;;5035604;28;20248;-81
2022/02/06 03:27:45;;;;;;;15.68;2.80;;;7.70;99.90;;;;;;5035716;28;20191;-80
2022/02/06 03:30:11;;;;;;;5.57;2.15;;;7.60;99.90;;;;;;5035081;28;20199;-80
2022/02/06 03:32:36;;;;;;;3.63;1.50;;;7.60;99.90;;;;;;5035272;28;20185;-80
2022/02/06 03:35:03;;;;;;;3.07;2.03;;;7.50;99.90;;;;;;5035282;28;20488;-80
2022/02/06 03:37:28;;;;;;;8.88;1.83;;;7.50;99.90;;;;;;5035388;28;20177;-80
2022/02/06 03:39:55;;;;;;;4.43;2.23;;;7.40;99.90;;;;;;5034867;28;20588;-79
2022/02/06 03:42:24;;;;;;;3.58;1.70;;;7.30;99.90;;;;;;5035186;28;20177;-81
2022/02/06 03:44:53;;;;;;;5.35;2.88;;;7.30;99.90;;;;;;5018314;28;20688;-80
2022/02/06 03:47:21;;;;;;;4.55;2.22;;;7.30;99.90;;;;;;5035366;28;20627;-81
2022/02/06 03:49:55;;;;;;;3.70;2.08;;;7.20;99.90;;;;;;5034801;28;20264;-77
2022/02/06 03:52:27;;;;;;;3.78;2.05;;;7.10;99.90;;;;;;5035078;28;20246;-83
2022/02/06 03:54:53;;;;;;;6.38;2.10;;;7.10;99.90;;;;;;5001796;28;20256;-83
2022/02/06 03:57:19;;;;;;;4.10;1.70;;;7.10;99.90;;;;;;5035319;28;20574;-83
2022/02/06 03:59:44;;;;;;;8.97;3.40;;;7.00;99.90;;;;;;5016960;28;20930;-79
2022/02/06 04:02:10;;;;;;;2.00;1.37;;;7.00;99.90;;;;;;5034881;28;20229;-82
2022/02/06 04:04:35;;;;;;;8.40;2.00;;;7.00;99.90;;;;;;5000796;28;20179;-80
2022/02/06 04:07:06;;;;;;;5.90;2.00;;;7.10;99.90;;;;;;5034833;28;20610;-84
2022/02/06 04:09:38;;;;;;;7.28;2.22;;;7.10;99.90;;;;;;5034769;28;20222;-81
2022/02/06 04:12:05;;;;;;;9.32;1.48;;;7.10;99.90;;;;;;5016759;28;20262;-79
2022/02/06 04:14:40;;;;;;;6.70;2.88;;;7.10;99.90;;;;;;5034436;28;20171;-82
2022/02/06 04:17:19;;;;;;;4.82;3.47;;;7.10;99.90;;;;;;5018520;28;20607;-81
2022/02/06 04:19:44;;;;;;;4.72;2.47;;;7.20;99.90;;;;;;5033094;28;20199;-81
2022/02/06 04:22:10;;;;;;;3.20;1.80;;;7.30;99.90;;;;;;5016745;28;20183;-81
2022/02/06 04:24:36;;;;;;;3.87;1.73;;;7.30;99.90;;;;;;5034478;28;20539;-82
2022/02/06 04:27:01;;;;;;;7.80;2.30;;;7.20;99.90;;;;;;5034537;28;20268;-79
2022/02/06 04:29:27;;;;;;;3.57;1.90;;;7.20;99.90;;;;;;5034094;28;20201;-82
2022/02/06 04:31:53;;;;;;;3.73;1.73;;;7.20;99.90;;;;;;5034259;28;20635;-81
2022/02/06 04:34:23;;;;;;;6.53;2.27;;;7.30;99.90;;;;;;5034242;28;20643;-82
2022/02/06 04:48:24;;;;;;;6.05;1.65;;;7.30;99.90;;;;;;5034258;28;20252;-83
2022/02/06 05:12:43;;;;;;;3.90;1.55;;;7.20;99.90;;;;;;5033997;28;20225;-80
2022/02/06 05:17:44;;;;;;;5.30;1.70;;;7.20;99.90;;;;;;5033761;28;20664;-81
2022/02/06 05:25:56;;;;;;;3.17;1.33;;;7.10;99.90;;;;;;5000062;28;20206;-82
2022/02/06 05:33:22;;;;;;;2.50;1.40;;;7.30;99.90;;;;;;5015960;28;20191;-83
2022/02/06 05:35:47;;;;;;;1.40;1.30;;;7.20;99.90;;;;;;5033307;28;20199;-83
2022/02/06 05:38:13;;;;;;;3.20;1.10;;;7.30;99.90;;;;;;5033264;28;20675;-83
2022/02/06 05:40:39;;;;;;;4.90;1.50;;;7.40;99.90;;;;;;5015129;28;20214;-82
2022/02/06 05:43:04;;;;;;;2.40;1.50;;;7.40;99.90;;;;;;5033202;28;20212;-81
2022/02/06 05:45:30;;;;;;;2.10;1.60;;;7.40;99.90;;;;;;5033236;28;20186;-80
2022/02/06 05:47:55;;;;;;;6.27;1.20;;;7.30;99.90;;;;;;5033523;28;20518;-82
2022/02/06 05:50:23;;;;;;;2.80;1.30;;;7.30;99.90;;;;;;5032972;28;20252;-81
2022/02/06 05:52:49;;;;;;;2.08;1.00;;;7.30;99.90;;;;;;5031925;28;20708;-81
2022/02/06 05:55:15;;;;;;;2.58;1.38;;;7.20;99.90;;;;;;5032877;28;20209;-80
2022/02/06 05:57:41;;;;;;;2.00;1.10;;;7.20;99.90;;;;;;5033150;28;20576;-80
2022/02/06 06:00:09;;;;;;;2.75;1.08;;;7.10;99.90;;;;;;5032801;28;20449;-81
2022/02/06 06:02:35;;;;;;;4.55;1.00;;;7.10;99.90;;;;;;5031792;28;20191;-81
2022/02/06 06:05:01;;;;;;;5.30;2.20;;;7.10;99.90;;;;;;5031717;28;20194;-82
2022/02/06 06:07:27;;;;;;;1.60;0.90;;;7.10;99.90;;;;;;5032904;28;20273;-81
2022/02/06 06:09:52;;;;;;;2.37;1.20;;;7.10;99.90;;;;;;5032742;28;20208;-84
2022/02/06 06:12:18;;;;;;;1.20;1.10;;;7.10;99.90;;;;;;5033044;28;20555;-82
2022/02/06 06:14:46;;;;;;;2.37;0.97;;;7.20;99.90;;;;;;5032890;28;20182;-82
2022/02/06 06:17:12;;;;;;;1.85;1.15;;;7.20;99.90;;;;;;5015961;28;20179;-82
2022/02/06 06:19:41;;;;;;;1.53;0.90;;;7.20;99.90;;;;;;5032458;28;20197;-78
2022/02/06 06:22:10;;;;;;;3.03;1.30;;;7.20;99.90;;;;;;5032802;28;20173;-81
2022/02/06 06:24:40;;;;;;;1.20;1.00;;;7.10;99.90;;;;;;5032966;28;20178;-82
2022/02/06 06:27:06;;;;;;;1.70;1.00;;;7.10;99.90;;;;;;5032941;28;20651;-82
2022/02/06 06:29:32;;;;;;;2.73;1.23;;;7.20;99.90;;;;;;5032337;28;20202;-80
2022/02/06 06:31:57;;;;;;;2.03;0.80;;;7.20;99.90;;;;;;5032822;28;20630;-79
2022/02/06 06:34:23;;;;;;;1.93;1.00;;;7.20;99.90;;;;;;5033113;28;20181;-80
2022/02/06 06:36:50;;;;;;;4.03;1.43;;;7.10;99.90;;;;;;5018894;28;20207;-81
2022/02/06 06:39:22;;;;;;;4.13;1.40;;;7.20;99.90;;;;;;5034679;28;20210;-81
2022/02/06 06:41:48;;;;;;;1.35;1.05;;;7.20;99.90;;;;;;5036292;28;20275;-84
2022/02/06 06:44:14;;;;;;;3.42;1.20;;;7.20;99.90;;;;;;5036505;28;20235;-83
2022/02/06 06:46:39;;;;;;;1.83;0.97;;;7.30;99.90;;;;;;5036415;28;20192;-82
2022/02/06 06:49:05;;;;;;;2.43;1.40;;;7.40;99.90;;;;;;5036207;28;20207;-80
2022/02/06 06:51:31;;;;;;;7.90;1.13;;;7.40;99.90;;;;;;5018555;28;20477;-81
2022/02/06 06:53:56;;;;;;;1.50;1.10;;;7.40;99.90;;;;;;5036186;28;20271;-79
2022/02/06 06:56:39;;;;;;;2.60;1.10;;;7.40;99.90;;;;;;5036101;28;20202;-82
2022/02/06 06:59:14;;;;;;;1.38;1.27;;;7.40;99.90;;;;;;5035906;28;20432;-82
2022/02/06 07:01:46;;;;;;;3.30;1.13;;;7.50;99.90;;;;;;5019850;28;20243;-82
2022/02/06 07:04:11;;;;;;;1.88;1.70;;;7.50;99.90;;;;;;5036263;28;20220;-82
2022/02/06 07:06:37;;;;;;;2.50;1.00;;;7.50;99.90;;;;;;5035107;28;20197;-82
2022/02/06 07:09:03;;;;;;;2.20;1.00;;;7.50;99.90;;;;;;5035925;28;20209;-82
2022/02/06 07:11:28;;;;;;;5.67;1.43;;;7.50;99.90;;;;;;5018402;28;20194;-82
2022/02/06 07:13:54;;;;;;;2.47;1.00;;;7.50;99.90;;;;;;5035823;28;20222;-83
2022/02/06 07:16:19;;;;;;;6.00;1.80;;;7.60;99.90;;;;;;5035946;28;20218;-84
2022/02/06 07:18:46;;;;;;;3.40;1.20;;;7.60;99.90;;;;;;5035569;28;20654;-84
2022/02/06 07:21:12;;;;;;;1.50;1.10;;;7.60;99.90;;;;;;5035674;28;20186;-83
2022/02/06 07:23:37;;;;;;;4.40;1.33;;;7.50;99.90;;;;;;5035611;28;20683;-82
2022/02/06 07:26:06;;;;;;;2.20;1.00;;;7.60;99.90;;;;;;5035598;28;20224;-83
2022/02/06 07:28:33;;;;;;;5.13;1.50;;;7.50;99.90;;;;;;5035677;28;20549;-81
2022/02/06 07:30:59;;;;;;;1.60;0.90;;;7.50;99.90;;;;;;5035220;28;20289;-82
2022/02/06 07:33:24;;;;;;;2.93;0.87;;;7.50;99.90;;;;;;5035498;28;20175;-85
2022/02/06 07:35:51;;;;;;;2.70;1.17;;;7.50;99.90;;;;;;5035411;28;20201;-82
2022/02/06 07:38:17;;;;;;;1.13;0.80;;;7.50;99.90;;;;;;5035350;28;20324;-79
2022/02/06 07:40:43;;;;;;;2.50;0.80;;;7.50;99.90;;;;;;5034901;28;20238;-82
2022/02/06 07:43:09;;;;;;;1.35;0.90;;;7.50;99.90;;;;;;5035006;28;20182;-83
2022/02/06 07:45:36;;;;;;;0.70;0.60;;;7.40;99.90;;;;;;5035217;28;20196;-81
2022/02/06 07:48:05;;;;;;;1.05;0.77;;;7.40;99.90;;;;;;5033451;28;20186;-83
2022/02/06 07:50:30;;;;;;;4.30;0.90;;;7.50;99.90;;;;;;5034727;28;20285;-82
2022/02/06 07:52:56;;;;;;;2.10;0.70;;;7.50;99.90;;;;;;5017623;28;20266;-80
2022/02/06 07:55:22;;;;;;;1.03;0.60;;;7.40;99.90;;;;;;5035016;28;21039;-80
2022/02/06 07:57:48;;;;;;;1.27;0.77;;;7.40;99.90;;;;;;5035096;28;20182;-80
2022/02/06 08:00:15;;;;;;;1.33;0.60;;;7.50;99.90;;;;;;5034659;28;20494;-85
2022/02/06 08:02:41;;;;;;;1.48;0.77;;;7.40;99.90;;;;;;5017494;28;20188;-83
2022/02/06 08:05:07;;;;;;;2.10;0.80;;;7.40;99.90;;;;;;5034907;28;20705;-82
2022/02/06 08:07:33;;;;;;;1.80;0.88;;;7.40;99.90;;;;;;5034996;28;20203;-82
2022/02/06 08:10:00;;;;;;;1.93;0.67;;;7.40;99.90;;;;;;5016807;28;20733;-81
2022/02/06 08:12:33;;;;;;;0.70;0.60;;;7.40;99.90;;;;;;5034647;28;20182;-83
2022/02/06 08:15:03;;;;;;;1.05;0.70;;;7.50;99.90;;;;;;5033361;28;20214;-83
2022/02/06 08:17:36;;;;;;;1.60;0.60;;;7.50;99.90;;;;;;5034866;28;20163;-82
2022/02/06 08:20:04;;;;;;;1.58;0.60;;;7.50;99.90;;;;;;5034513;28;20221;-82
2022/02/06 08:22:30;;;;;;;1.45;0.75;;;7.60;99.90;;;;;;5034462;28;20181;-84
2022/02/06 08:24:56;;;;;;;0.73;0.53;;;7.60;99.90;;;;;;5034564;28;20180;-81
2022/02/06 08:27:25;;;;;;;0.77;0.57;;;7.60;99.90;;;;;;5017078;28;20487;-82
2022/02/06 08:29:51;;;;;;;0.60;0.50;;;7.50;99.90;;;;;;5016314;28;20226;-83
2022/02/06 08:32:19;;;;;;;1.05;0.80;;;7.60;99.90;;;;;;5033030;28;20277;-83
2022/02/06 08:34:45;;;;;;;1.00;0.60;;;7.60;99.90;;;;;;5034215;28;20170;-83
2022/02/06 08:37:11;;;;;;;1.00;0.60;;;7.60;99.90;;;;;;5016788;28;20182;-80
2022/02/06 08:39:38;;;;;;;0.70;0.60;;;7.60;99.90;;;;;;5033973;28;20443;-82
2022/02/06 08:42:06;;;;;;;0.80;0.60;;;7.60;99.90;;;;;;5034110;28;20922;-84
2022/02/06 08:44:33;;;;;;;0.70;0.60;;;7.50;99.90;;;;;;5034053;28;20175;-82
2022/02/06 08:46:59;;;;;;;1.58;0.65;;;7.50;99.90;;;;;;5034082;28;20183;-83
2022/02/06 08:49:24;;;;;;;1.27;0.60;;;7.60;99.90;;;;;;5033793;28;20198;-81
2022/02/06 08:51:51;;;;;;;1.23;0.60;;;7.50;99.90;;;;;;5034040;28;20888;-81
2022/02/06 08:54:17;;;;;;;0.60;0.50;;;7.50;99.90;;;;;;5033966;28;20186;-81
2022/02/06 08:56:43;;;;;;;1.30;0.70;;;7.60;99.90;;;;;;5016011;28;20202;-82
2022/02/06 08:59:10;;;;;;;0.80;0.60;;;7.50;99.90;;;;;;5032533;28;20444;-82
2022/02/06 09:01:37;;;;;;;1.08;0.60;;;7.50;99.90;;;;;;5016139;28;20182;-83
2022/02/06 09:04:04;;;;;;;0.90;0.60;;;7.50;99.90;;;;;;5016387;28;20179;-83
2022/02/06 09:06:31;;;;;;;0.65;0.52;;;7.50;99.90;;;;;;5015832;28;20185;-81
2022/02/06 09:08:58;;;;;;;1.80;0.63;;;7.50;99.90;;;;;;5033605;28;20199;-81
2022/02/06 09:11:25;;;;;;;1.67;0.50;;;7.50;99.90;;;;;;4999826;28;20192;-83
2022/02/06 09:13:52;;;;;;;0.60;0.60;;;7.50;99.90;;;;;;5033614;28;20179;-81
2022/02/06 09:16:18;;;;;;;0.70;0.50;;;7.50;99.90;;;;;;5016164;28;20607;-83
2022/02/06 09:18:44;;;;;;;1.00;0.70;;;7.50;99.90;;;;;;5033154;28;20205;-83
2022/02/06 09:21:09;;;;;;;0.70;0.60;;;7.50;99.90;;;;;;5033662;28;20401;-83
2022/02/06 09:23:35;;;;;;;1.20;1.00;;;7.40;99.90;;;;;;5033714;28;20222;-84
2022/02/06 09:26:01;;;;;;;0.63;0.50;;;7.40;99.90;;;;;;5033323;28;20533;-82
2022/02/06 09:28:27;;;;;;;1.58;0.70;;;7.40;99.90;;;;;;5033341;28;20419;-79
2022/02/06 09:30:53;;;;;;;0.60;0.50;;;7.40;99.90;;;;;;5032928;28;20209;-80
2022/02/06 09:35:44;;;;;;;0.80;0.60;;;7.50;99.90;;;;;;5033438;28;20214;-78
2022/02/06 09:38:10;;;;;;;0.70;0.57;;;7.50;99.90;;;;;;5033420;28;20334;-79
2022/02/06 09:40:39;;;;;;;1.73;0.50;;;7.40;99.90;;;;;;5032786;28;20276;-80
2022/02/06 09:43:06;;;;;;;0.90;0.68;;;7.40;99.90;;;;;;5035696;28;20202;-79
2022/02/06 09:45:33;;;;;;;0.85;0.50;;;7.40;99.90;;;;;;5045935;28;20268;-76
2022/02/06 09:48:00;;;;;;;1.60;0.70;;;7.40;99.90;;;;;;5053109;28;20175;-79
2022/02/06 09:50:26;;;;;;;0.93;0.50;;;7.40;99.90;;;;;;5052623;28;20203;-78
2022/02/06 09:52:53;;;;;;;0.60;0.50;;;7.50;99.90;;;;;;5041553;28;20182;-79
2022/02/06 09:55:20;;;;;;;3.40;0.60;;;7.50;99.90;;;;;;5043332;28;20444;-79
2022/02/06 09:58:13;;;;;;;0.70;0.60;;;7.50;99.90;;;;;;5042042;28;20171;-79
2022/02/06 10:00:41;;;;;;;0.60;0.50;;;7.50;99.90;;;;;;5042925;28;20614;-80
2022/02/06 10:03:11;;;;;;;0.90;0.80;;;7.50;99.90;;;;;;5041962;28;20177;-76
2022/02/06 10:05:41;;;;;;;0.63;0.50;;;7.50;99.90;;;;;;5042966;28;20204;-78
2022/02/06 10:08:38;;;;;;;0.70;0.43;;;7.50;99.90;;;;;;5041498;28;20178;-79
2022/02/06 10:11:10;;;;;;;1.00;0.70;;;7.50;99.90;;;;;;5013146;28;20623;-80
2022/02/06 10:13:39;;;;;;;1.67;0.63;;;7.50;99.90;;;;;;5017193;28;20178;-78
2022/02/06 10:16:10;;;;;;;0.80;0.50;;;7.40;99.90;;;;;;5045887;28;20566;-79
2022/02/06 10:18:36;;;;;;;0.60;0.50;;;7.40;99.90;;;;;;5056615;28;20235;-77
2022/02/06 10:21:02;;;;;;;1.60;0.60;;;7.40;99.90;;;;;;5056817;28;20238;-79
2022/02/06 10:26:10;;;;;;;0.70;0.60;;;7.30;99.90;;;;;;5057008;28;20650;-80
2022/02/06 10:28:42;;;;;;;0.65;0.52;;;7.30;99.90;;;;;;5056500;28;20178;-81
2022/02/06 10:31:09;;;;;;;0.77;0.60;;;7.30;99.90;;;;;;5056613;28;20694;-77
2022/02/06 10:33:45;;;;;;;0.88;0.68;;;7.20;99.90;;;;;;5056606;28;20289;-78
2022/02/06 10:36:11;;;;;;;1.70;0.55;;;7.30;99.90;;;;;;5038494;28;20718;-80
2022/02/06 10:38:36;;;;;;;1.00;0.60;;;7.20;99.90;;;;;;5056117;28;20217;-76
2022/02/06 10:41:07;;;;;;;0.70;0.50;;;7.20;99.90;;;;;;5038449;28;20446;-79
2022/02/06 10:43:34;;;;;;;1.15;0.55;;;7.30;99.90;;;;;;5056222;28;20236;-76
2022/02/06 10:46:11;;;;;;;0.70;0.50;;;7.20;99.90;;;;;;5056456;28;20179;-79
2022/02/06 10:48:49;;;;;;;0.60;0.50;;;7.30;99.90;;;;;;5038102;28;20541;-79
2022/02/06 10:51:33;;;;;;;0.60;0.57;;;7.30;99.90;;;;;;5056123;28;20169;-79
2022/02/06 10:53:59;;;;;;;0.50;0.43;;;7.30;99.90;;;;;;5056159;28;20173;-77
2022/02/06 10:56:25;;;;;;;1.00;0.57;;;7.30;99.90;;;;;;5056097;28;20285;-78
2022/02/06 10:58:58;;;;;;;1.37;0.50;;;7.20;99.90;;;;;;5055693;28;20185;-79
2022/02/06 11:01:26;;;;;;;1.50;0.50;;;7.30;99.90;;;;;;5056075;28;20662;-78
2022/02/06 11:04:43;;;;;;;0.60;0.50;;;7.30;99.90;;;;;;5038519;28;20247;-79
2022/02/06 11:07:12;;;;;;;0.60;0.50;;;7.20;99.90;;;;;;5055373;28;20658;-77
2022/02/06 11:09:39;;;;;;;0.60;0.50;;;7.20;99.90;;;;;;5055406;28;20202;-77
2022/02/06 11:12:20;;;;;;;1.02;0.50;;;7.20;99.90;;;;;;5055813;28;20490;-77
2022/02/06 11:14:48;;;;;;;0.63;0.50;;;7.20;99.90;;;;;;5055879;28;20517;-79
2022/02/06 11:17:22;;;;;;;0.60;0.50;;;7.20;99.90;;;;;;5056152;28;20171;-78
2022/02/06 11:20:08;;;;;;;1.40;0.85;;;7.20;99.90;;;;;;5055199;28;20283;-79
2022/02/06 11:22:34;;;;;;;0.70;0.50;;;7.10;99.90;;;;;;5054824;28;20177;-78
2022/02/06 11:25:01;;;;;;;1.48;0.80;;;7.10;99.90;;;;;;5055584;28;20511;-77
2022/02/06 11:27:27;;;;;;;0.70;0.60;;;7.10;99.90;;;;;;5055552;28;20167;-79
2022/02/06 11:29:56;;;;;;;0.82;0.50;;;7.00;99.90;;;;;;5055027;28;20554;-77
2022/02/06 11:32:23;;;;;;;1.40;0.50;;;7.00;99.90;;;;;;5055497;28;20177;-79
2022/02/06 11:34:49;;;;;;;0.90;0.70;;;7.00;99.90;;;;;;5055349;28;20190;-78
2022/02/06 11:46:21;;;;;;;1.42;0.50;;;7.10;99.90;;;;;;5055195;28;20632;-78
2022/02/06 11:48:48;;;;;;;0.68;0.65;;;7.10;99.90;;;;;;5054933;28;20587;-78
2022/02/06 11:51:18;;;;;;;2.10;0.60;;;7.10;99.90;;;;;;5055090;28;20231;-78
2022/02/06 11:53:44;;;;;;;0.60;0.60;;;7.10;99.90;;;;;;5055054;28;20171;-78
2022/02/06 11:56:33;;;;;;;0.50;0.40;;;7.10;99.90;;;;;;5036981;28;20201;-78
2022/02/06 11:59:13;;;;;;;0.80;0.60;;;7.20;99.90;;;;;;5054730;28;20188;-78
2022/02/06 12:01:42;;;;;;;0.70;0.50;;;7.20;99.90;;;;;;5054930;28;20171;-78
2022/02/06 12:04:23;;;;;;;0.50;0.40;;;7.10;99.90;;;;;;5055000;28;20618;-78
2022/02/06 12:06:54;;;;;;;0.50;0.40;;;7.20;99.90;;;;;;5054950;28;20185;-78
2022/02/06 12:09:22;;;;;;;0.60;0.50;;;7.20;99.90;;;;;;5054360;28;20232;-78
2022/02/06 12:12:06;;;;;;;0.60;0.40;;;7.20;99.90;;;;;;5054960;28;20510;-78
2022/02/06 12:14:38;;;;;;;1.40;0.50;;;7.30;99.90;;;;;;5054651;28;20198;-78
2022/02/06 12:19:41;;;;;;;1.58;0.50;;;7.30;99.90;;;;;;5054365;28;20190;-78
2022/02/06 12:22:26;;;;;;;0.60;0.50;;;7.30;99.90;;;;;;5054434;28;20177;-77
2022/02/06 12:24:52;;;;;;;0.95;0.65;;;7.40;99.90;;;;;;5054235;28;20202;-79
2022/02/06 12:27:26;;;;;;;0.70;0.50;;;7.50;99.90;;;;;;5054324;28;20178;-78
2022/02/06 12:30:06;;;;;;;0.65;0.50;;;7.50;99.90;;;;;;5054317;28;20526;-78
2022/02/06 12:32:33;;;;;;;0.80;0.50;;;7.60;99.90;;;;;;5054039;28;20178;-77
2022/02/06 12:37:44;;;;;;;0.93;0.70;;;7.90;99.90;;;;;;5054479;28;20193;-78
2022/02/06 12:40:16;;;;;;;1.15;0.50;;;8.00;99.90;;;;;;5053738;28;20320;-79
2022/02/06 12:42:45;;;;;;;1.13;0.50;;;8.10;99.90;;;;;;5046150;28;20210;-77
2022/02/06 12:45:22;;;;;;;0.60;0.50;;;8.30;99.90;;;;;;5034239;28;20174;-77
2022/02/06 12:47:54;;;;;;;0.60;0.55;;;8.30;99.90;;;;;;5036884;28;20603;-76
2022/02/06 12:50:21;;;;;;;1.23;0.52;;;8.40;99.90;;;;;;5045663;28;20198;-78
2022/02/06 12:52:48;;;;;;;0.80;0.52;;;8.40;99.90;;;;;;5036013;28;20627;-79
2022/02/06 12:55:15;;;;;;;1.02;0.70;;;8.50;99.90;;;;;;5035890;28;20241;-77
2022/02/06 12:57:46;;;;;;;2.13;0.75;;;8.70;99.90;;;;;;5053802;28;20178;-80
2022/02/06 13:00:44;;;;;;;1.45;0.70;;;8.80;99.90;;;;;;5035648;28;20221;-78
2022/02/06 13:03:37;;;;;;;1.00;0.70;;;8.80;99.90;;;;;;5035921;28;20640;-77
2022/02/06 13:06:06;;;;;;;1.77;0.75;;;8.90;99.90;;;;;;5053894;28;20178;-76
2022/02/06 13:08:37;;;;;;;2.08;0.60;;;8.90;99.90;;;;;;5039980;28;20189;-77
2022/02/06 13:11:09;;;;;;;1.63;1.00;;;9.00;99.90;;;;;;5047066;28;20190;-77
2022/02/06 13:13:47;;;;;;;1.02;0.70;;;8.90;99.90;;;;;;5035893;28;20288;-79
2022/02/06 13:26:50;;;;;;;3.90;0.80;;;8.50;99.90;;;;;;5013406;28;20179;-80
2022/02/06 13:34:24;;;;;;;0.70;0.50;;;7.50;99.90;;;;;;5019209;28;20190;-79
2022/02/06 13:36:56;;;;;;;2.30;1.20;;;7.20;99.90;;;;;;5033117;28;20213;-78
2022/02/06 13:39:31;;;;;;;1.05;0.85;;;6.90;99.90;;;;;;5032858;28;20182;-78
2022/02/06 13:41:57;;;;;;;0.85;0.55;;;6.70;99.90;;;;;;5033366;28;20183;-79
2022/02/06 13:44:25;;;;;;;1.27;0.70;;;6.70;99.90;;;;;;5032520;28;20186;-78
2022/02/06 13:46:53;;;;;;;0.80;0.60;;;6.60;99.90;;;;;;5039341;28;20512;-77
2022/02/06 13:49:45;;;;;;;2.70;0.82;;;6.60;99.90;;;;;;5052644;28;20595;-79
2022/02/06 13:52:12;;;;;;;1.58;0.63;;;6.50;99.90;;;;;;5053027;28;20197;-79
2022/02/06 13:54:42;;;;;;;1.10;0.80;;;6.40;99.90;;;;;;5052885;28;20583;-78
2022/02/06 13:57:08;;;;;;;1.40;1.30;;;6.30;99.90;;;;;;5052765;28;20212;-78
2022/02/06 13:59:38;;;;;;;3.30;0.70;;;6.30;99.90;;;;;;5052554;28;20615;-78
2022/02/06 14:02:07;;;;;;;1.00;0.70;;;6.20;99.90;;;;;;5052877;28;20182;-77
2022/02/06 14:04:36;;;;;;;2.88;0.60;;;6.20;99.90;;;;;;5053068;28;20170;-78
2022/02/06 14:07:09;;;;;;;1.55;1.10;;;6.20;99.90;;;;;;5053011;28;20268;-77
2022/02/06 14:12:09;;;;;;;2.40;1.30;;;6.20;99.90;;;;;;5053346;28;20177;-78
2022/02/06 14:14:38;;;;;;;1.88;0.70;;;6.20;99.90;;;;;;5052990;28;20587;-78
2022/02/06 14:17:08;;;;;;;0.98;0.60;;;6.20;99.90;;;;;;5052834;28;20693;-77
2022/02/06 14:19:34;;;;;;;1.25;0.80;;;6.20;99.90;;;;;;5052577;28;20190;-77
2022/02/06 14:22:00;;;;;;;1.43;0.60;;;6.10;99.90;;;;;;5035046;28;20189;-78
2022/02/06 14:24:26;;;;;;;3.03;0.80;;;6.20;99.90;;;;;;5052886;28;20177;-79
2022/02/06 14:27:05;;;;;;;0.90;0.60;;;6.20;99.90;;;;;;5052733;28;20635;-78
2022/02/06 14:29:32;;;;;;;1.20;0.80;;;6.20;99.90;;;;;;5052272;28;20451;-78
2022/02/06 14:32:27;;;;;;;4.82;0.90;;;6.20;99.90;;;;;;5052883;28;20267;-79
2022/02/06 14:35:12;;;;;;;4.35;1.00;;;6.20;99.90;;;;;;5026313;28;20659;-77
2022/02/06 14:37:52;;;;;;;1.65;0.80;;;6.20;99.90;;;;;;5035878;28;20582;-77
2022/02/06 14:43:11;;;;;;;6.47;0.98;;;6.20;99.90;;;;;;5052649;28;20571;-78
2022/02/06 14:45:51;;;;;;;1.83;0.80;;;6.20;99.90;;;;;;5052550;28;20170;-78
2022/02/06 14:48:18;;;;;;;0.80;0.70;;;6.20;99.90;;;;;;5052661;28;20216;-78
2022/02/06 14:50:48;;;;;;;1.40;0.70;;;6.20;99.90;;;;;;5034241;28;20205;-78
2022/02/06 14:53:15;;;;;;;1.70;0.90;;;6.20;99.90;;;;;;5052394;28;20205;-78
2022/02/06 14:55:42;;;;;;;1.17;0.70;;;6.20;99.90;;;;;;5053103;28;20203;-78
2022/02/06 14:58:08;;;;;;;1.50;0.65;;;6.30;99.90;;;;;;5056127;28;20220;-77
2022/02/06 15:00:35;;;;;;;1.77;0.93;;;6.30;99.90;;;;;;5021535;28;20285;-78
2022/02/06 15:03:00;;;;;;;1.13;0.73;;;6.30;99.90;;;;;;5055930;28;20174;-79
2022/02/06 15:05:28;;;;;;;1.30;1.10;;;6.30;99.90;;;;;;5021623;28;20182;-78
2022/02/06 15:07:54;;;;;;;0.90;0.65;;;6.20;99.90;;;;;;5055998;28;20170;-77
2022/02/06 15:10:20;;;;;;;3.30;0.80;;;6.20;99.90;;;;;;5055546;28;20203;-78
2022/02/06 15:12:45;;;;;;;3.47;2.50;;;6.20;99.90;;;;;;5055888;28;20264;-78
2022/02/06 15:15:12;;;;;;;1.83;0.70;;;6.20;99.90;;;;;;5055732;28;20466;-78
2022/02/06 15:17:38;;;;;;;1.15;0.70;;;6.20;99.90;;;;;;5055600;28;20210;-78
2022/02/06 15:20:04;;;;;;;1.73;1.00;;;6.20;99.90;;;;;;5055374;28;20237;-79
2022/02/06 15:22:29;;;;;;;0.90;0.80;;;6.20;99.90;;;;;;5055755;28;20186;-77
2022/02/06 15:24:55;;;;;;;1.60;1.20;;;6.20;99.90;;;;;;5055812;28;20307;-78
2022/02/06 15:27:21;;;;;;;2.23;0.83;;;6.30;99.90;;;;;;5055581;28;20640;-78
2022/02/06 15:29:46;;;;;;;1.10;0.73;;;6.30;99.90;;;;;;5055148;28;20268;-78
2022/02/06 15:32:12;;;;;;;0.90;0.70;;;6.30;99.90;;;;;;5055678;28;20229;-79
2022/02/06 15:34:38;;;;;;;2.43;0.70;;;6.20;99.90;;;;;;5055624;28;20176;-77
2022/02/06 15:37:04;;;;;;;3.90;0.90;;;6.10;99.90;;;;;;5055233;28;20645;-78
2022/02/06 15:39:35;;;;;;;2.20;1.00;;;6.10;99.90;;;;;;5055012;28;20661;-78
2022/02/06 15:42:04;;;;;;;1.90;0.82;;;6.10;99.90;;;;;;5055375;28;20178;-78
2022/02/06 15:44:30;;;;;;;1.85;1.13;;;6.10;99.90;;;;;;5055238;28;20232;-78